createdAt,value
2022-10-10T00:02:17.358Z,20.00
2022-10-10T00:04:44.436Z,20.00
2022-10-10T00:07:11.431Z,20.00
2022-10-10T00:09:38.444Z,20.00
2022-10-10T00:12:05.473Z,20.00
2022-10-10T00:14:32.689Z,20.00
2022-10-10T00:16:59.724Z,20.00
2022-10-10T00:19:26.713Z,20.00
2022-10-10T00:21:53.704Z,20.00
2022-10-10T00:24:20.888Z,19.90
2022-10-10T00:26:47.876Z,19.90
2022-10-10T00:29:14.856Z,19.90
2022-10-10T00:31:41.863Z,19.90
2022-10-10T00:34:08.899Z,19.90
2022-10-10T00:36:35.901Z,19.90
2022-10-10T00:39:02.916Z,19.90
2022-10-10T00:41:29.973Z,19.90
2022-10-10T00:44:01.085Z,19.90
2022-10-10T00:46:28.087Z,19.80
2022-10-10T00:48:55.087Z,19.90
2022-10-10T00:51:22.062Z,19.80
2022-10-10T00:53:50.467Z,19.80
2022-10-10T00:56:19.217Z,19.80
2022-10-10T00:58:48.234Z,19.80
2022-10-10T01:01:15.309Z,19.80
2022-10-10T01:03:42.560Z,19.80
2022-10-10T01:06:09.704Z,19.80
2022-10-10T01:08:36.858Z,19.80
2022-10-10T01:11:11.756Z,19.80
2022-10-10T01:13:43.876Z,19.80
2022-10-10T01:16:14.593Z,19.70
2022-10-10T01:18:41.568Z,19.70
2022-10-10T01:21:28.013Z,19.70
2022-10-10T01:23:54.973Z,19.70
2022-10-10T01:26:28.079Z,19.70
2022-10-10T01:29:01.320Z,19.70
2022-10-10T01:31:29.218Z,19.70
2022-10-10T01:34:02.051Z,19.70
2022-10-10T01:36:38.346Z,19.70
2022-10-10T01:39:17.510Z,19.70
2022-10-10T01:41:50.655Z,19.70
2022-10-10T01:44:20.434Z,19.70
2022-10-10T01:46:47.654Z,19.70
2022-10-10T01:49:14.784Z,19.60
2022-10-10T01:52:03.356Z,19.60
2022-10-10T01:54:33.248Z,19.60
2022-10-10T01:57:03.360Z,19.60
2022-10-10T01:59:39.153Z,19.60
2022-10-10T02:02:35.587Z,19.60
2022-10-10T02:05:07.538Z,19.60
2022-10-10T02:07:54.222Z,19.60
2022-10-10T02:10:23.510Z,19.60
2022-10-10T02:12:51.297Z,19.60
2022-10-10T02:15:21.360Z,19.60
2022-10-10T02:17:49.245Z,19.60
2022-10-10T02:20:17.998Z,19.60
2022-10-10T02:22:45.697Z,19.60
2022-10-10T02:25:13.299Z,19.60
2022-10-10T02:27:46.461Z,19.50
2022-10-10T02:30:14.089Z,19.50
2022-10-10T02:32:43.151Z,19.50
2022-10-10T02:35:13.105Z,19.50
2022-10-10T02:37:40.791Z,19.50
2022-10-10T02:40:08.741Z,19.50
2022-10-10T02:42:36.916Z,19.50
2022-10-10T02:45:05.043Z,19.50
2022-10-10T02:47:32.173Z,19.50
2022-10-10T02:49:59.182Z,19.50
2022-10-10T02:52:26.149Z,19.50
2022-10-10T02:54:53.178Z,19.40
2022-10-10T02:57:20.136Z,19.40
2022-10-10T02:59:47.207Z,19.40
2022-10-10T03:02:14.245Z,19.40
2022-10-10T03:04:42.080Z,19.40
2022-10-10T03:07:09.085Z,19.40
2022-10-10T03:09:36.054Z,19.40
2022-10-10T03:12:03.245Z,19.40
2022-10-10T03:14:30.256Z,19.40
2022-10-10T03:16:57.254Z,19.40
2022-10-10T03:19:24.324Z,19.40
2022-10-10T03:21:51.362Z,19.40
2022-10-10T03:24:18.513Z,19.30
2022-10-10T03:26:45.527Z,19.30
2022-10-10T03:29:12.603Z,19.40
2022-10-10T03:31:39.651Z,19.30
2022-10-10T03:34:06.671Z,19.40
2022-10-10T03:36:33.795Z,19.30
2022-10-10T03:39:00.904Z,19.30
2022-10-10T03:41:28.265Z,19.30
2022-10-10T03:43:55.680Z,19.30
2022-10-10T03:46:22.715Z,19.30
2022-10-10T03:48:50.002Z,19.30
2022-10-10T03:51:17.047Z,19.30
2022-10-10T03:53:44.083Z,19.30
2022-10-10T03:56:11.398Z,19.30
2022-10-10T03:58:38.446Z,19.40
2022-10-10T04:01:05.626Z,19.40
2022-10-10T04:03:32.731Z,19.50
2022-10-10T04:05:59.792Z,19.50
2022-10-10T04:08:28.173Z,19.70
2022-10-10T04:10:55.436Z,20.00
2022-10-10T04:13:23.184Z,20.40
2022-10-10T04:15:51.141Z,20.60
2022-10-10T04:18:18.498Z,20.80
2022-10-10T04:20:45.685Z,21.00
2022-10-10T04:23:12.715Z,21.20
2022-10-10T04:25:39.695Z,21.40
2022-10-10T04:28:06.717Z,21.50
2022-10-10T04:30:34.966Z,21.60
2022-10-10T04:33:01.979Z,21.70
2022-10-10T04:35:29.068Z,21.80
2022-10-10T04:37:56.049Z,21.80
2022-10-10T04:40:26.606Z,21.90
2022-10-10T04:42:54.637Z,22.00
2022-10-10T04:45:21.668Z,22.00
2022-10-10T04:47:48.723Z,22.00
2022-10-10T04:50:15.730Z,22.00
2022-10-10T04:52:42.703Z,22.00
2022-10-10T04:55:09.728Z,22.00
2022-10-10T04:57:36.714Z,21.90
2022-10-10T05:00:05.144Z,21.90
2022-10-10T05:02:32.483Z,21.90
2022-10-10T05:04:59.710Z,21.80
2022-10-10T05:07:26.888Z,21.70
2022-10-10T05:09:54.085Z,21.60
2022-10-10T05:12:21.249Z,21.60
2022-10-10T05:14:48.503Z,21.50
2022-10-10T05:17:15.661Z,21.50
2022-10-10T05:19:42.663Z,21.50
2022-10-10T05:22:09.781Z,21.50
2022-10-10T05:24:37.085Z,21.50
2022-10-10T05:27:04.117Z,21.50
2022-10-10T05:29:31.108Z,21.40
2022-10-10T05:31:58.094Z,21.40
2022-10-10T05:34:25.128Z,21.40
2022-10-10T05:36:52.273Z,21.30
2022-10-10T05:39:19.244Z,21.30
2022-10-10T05:41:46.397Z,21.30
2022-10-10T05:44:13.410Z,21.20
2022-10-10T05:46:40.527Z,21.20
2022-10-10T05:49:07.518Z,21.10
2022-10-10T05:51:34.557Z,21.10
2022-10-10T05:54:01.977Z,21.10
2022-10-10T05:56:29.009Z,21.10
2022-10-10T05:58:56.008Z,21.10
2022-10-10T06:01:23.095Z,21.00
2022-10-10T06:03:52.783Z,21.00
2022-10-10T06:06:19.752Z,21.00
2022-10-10T06:08:46.789Z,20.90
2022-10-10T06:11:15.881Z,21.00
2022-10-10T06:13:43.219Z,21.00
2022-10-10T06:16:10.258Z,21.00
2022-10-10T06:18:37.295Z,21.00
2022-10-10T06:21:05.929Z,21.00
2022-10-10T06:23:33.290Z,21.10
2022-10-10T06:26:00.393Z,21.10
2022-10-10T06:28:27.628Z,21.10
2022-10-10T06:30:54.708Z,21.10
2022-10-10T06:33:21.800Z,21.20
2022-10-10T06:35:48.904Z,21.20
2022-10-10T06:38:16.695Z,21.20
2022-10-10T06:40:43.755Z,21.20
2022-10-10T06:43:11.925Z,21.30
2022-10-10T06:45:40.026Z,21.30
2022-10-10T06:48:07.500Z,21.30
2022-10-10T06:50:34.753Z,21.40
2022-10-10T06:53:01.863Z,21.30
2022-10-10T06:55:28.853Z,21.30
2022-10-10T06:57:55.985Z,21.30
2022-10-10T07:00:23.176Z,21.30
2022-10-10T07:02:50.387Z,21.30
2022-10-10T07:05:18.017Z,21.30
2022-10-10T07:07:45.550Z,21.20
2022-10-10T07:10:13.596Z,21.20
2022-10-10T07:12:44.459Z,21.20
2022-10-10T07:15:19.293Z,21.20
2022-10-10T07:17:50.488Z,21.10
2022-10-10T07:20:20.633Z,21.10
2022-10-10T07:22:47.737Z,21.10
2022-10-10T07:25:14.768Z,21.10
2022-10-10T07:27:41.908Z,21.00
2022-10-10T07:30:09.130Z,21.00
2022-10-10T07:32:36.237Z,21.00
2022-10-10T07:35:03.306Z,21.00
2022-10-10T07:37:30.314Z,20.90
2022-10-10T07:39:57.404Z,20.90
2022-10-10T07:42:24.410Z,20.90
2022-10-10T07:44:51.450Z,20.90
2022-10-10T07:47:18.421Z,20.90
2022-10-10T07:49:45.480Z,20.90
2022-10-10T07:52:12.543Z,20.90
2022-10-10T07:54:39.584Z,20.90
2022-10-10T07:57:06.606Z,20.90
2022-10-10T07:59:33.658Z,20.90
2022-10-10T08:02:00.708Z,21.00
2022-10-10T08:04:27.745Z,21.00
2022-10-10T08:06:54.806Z,21.00
2022-10-10T08:09:21.846Z,21.10
2022-10-10T08:11:48.857Z,21.20
2022-10-10T08:14:15.914Z,21.10
2022-10-10T08:16:42.933Z,21.20
2022-10-10T08:19:10.044Z,21.20
2022-10-10T08:21:37.357Z,21.30
2022-10-10T08:24:04.531Z,21.30
2022-10-10T08:26:31.570Z,21.30
2022-10-10T08:28:58.563Z,21.40
2022-10-10T08:31:25.689Z,21.40
2022-10-10T08:33:52.693Z,21.40
2022-10-10T08:36:21.239Z,21.40
2022-10-10T08:38:48.490Z,21.40
2022-10-10T08:41:15.497Z,21.40
2022-10-10T08:43:45.308Z,21.50
2022-10-10T08:46:21.089Z,21.40
2022-10-10T08:48:50.379Z,21.40
2022-10-10T08:51:23.793Z,21.40
2022-10-10T08:53:53.678Z,21.40
2022-10-10T08:56:26.113Z,21.40
2022-10-10T08:58:55.446Z,21.40
2022-10-10T09:01:28.032Z,21.40
2022-10-10T09:03:57.568Z,21.40
2022-10-10T09:06:36.819Z,21.40
2022-10-10T09:09:14.078Z,21.30
2022-10-10T09:11:59.534Z,21.30
2022-10-10T09:14:33.035Z,21.30
2022-10-10T09:17:06.506Z,21.20
2022-10-10T09:19:46.743Z,21.20
2022-10-10T09:22:16.352Z,21.20
2022-10-10T09:24:56.289Z,21.10
2022-10-10T09:27:25.163Z,21.10
2022-10-10T09:30:18.596Z,21.10
2022-10-10T09:32:48.586Z,21.10
2022-10-10T09:35:17.810Z,21.10
2022-10-10T09:37:47.765Z,21.10
2022-10-10T09:40:18.337Z,21.00
2022-10-10T09:42:45.551Z,21.00
2022-10-10T09:45:20.856Z,21.00
2022-10-10T09:47:49.623Z,21.00
2022-10-10T09:50:17.076Z,21.00
2022-10-10T09:52:45.232Z,21.00
2022-10-10T09:55:21.392Z,21.00
2022-10-10T09:57:49.966Z,21.00
2022-10-10T10:00:19.795Z,21.10
2022-10-10T10:02:50.503Z,21.10
2022-10-10T10:05:18.834Z,21.10
2022-10-10T10:07:47.489Z,21.20
2022-10-10T10:10:19.559Z,21.30
2022-10-10T10:12:46.859Z,21.40
2022-10-10T10:15:21.535Z,21.40
2022-10-10T10:18:08.804Z,21.50
2022-10-10T10:20:37.064Z,21.50
2022-10-10T10:23:04.280Z,21.60
2022-10-10T10:25:33.669Z,21.50
2022-10-10T10:28:14.935Z,21.50
2022-10-10T10:30:43.444Z,21.60
2022-10-10T10:33:29.282Z,21.50
2022-10-10T10:36:02.686Z,21.50
2022-10-10T10:38:39.160Z,21.50
2022-10-10T10:41:16.859Z,21.50
2022-10-10T10:44:02.751Z,21.40
2022-10-10T10:46:32.840Z,21.40
2022-10-10T10:49:02.041Z,21.40
2022-10-10T10:51:36.834Z,21.40
2022-10-10T10:54:18.434Z,21.30
2022-10-10T10:56:45.403Z,21.30
2022-10-10T11:00:26.568Z,21.30
2022-10-10T11:02:54.110Z,21.30
2022-10-10T11:05:40.974Z,21.20
2022-10-10T11:08:23.596Z,21.20
2022-10-10T11:11:05.930Z,21.20
2022-10-10T11:13:39.073Z,21.10
2022-10-10T11:16:36.213Z,21.10
2022-10-10T11:19:38.855Z,21.10
2022-10-10T11:22:08.334Z,21.10
2022-10-10T11:24:54.325Z,21.10
2022-10-10T11:27:24.871Z,21.10
2022-10-10T11:29:57.873Z,21.00
2022-10-10T11:32:30.282Z,21.10
2022-10-10T11:35:07.595Z,21.10
2022-10-10T11:37:38.415Z,21.10
2022-10-10T11:40:06.552Z,21.10
2022-10-10T11:42:37.524Z,21.20
2022-10-10T11:45:09.929Z,21.20
2022-10-10T11:47:52.330Z,21.30
2022-10-10T11:50:26.238Z,21.30
2022-10-10T11:52:59.365Z,21.30
2022-10-10T11:55:41.679Z,21.40
2022-10-10T11:58:08.729Z,21.40
2022-10-10T12:00:37.352Z,21.50
2022-10-10T12:03:04.557Z,21.50
2022-10-10T12:05:37.654Z,21.50
2022-10-10T12:08:07.883Z,21.50
2022-10-10T12:10:34.926Z,21.60
2022-10-10T12:13:18.320Z,21.50
2022-10-10T12:15:49.963Z,21.50
2022-10-10T12:18:30.754Z,21.50
2022-10-10T12:21:09.016Z,21.50
2022-10-10T12:23:36.514Z,21.50
2022-10-10T12:26:04.123Z,21.50
2022-10-10T12:28:36.850Z,21.40
2022-10-10T12:31:04.537Z,21.40
2022-10-10T12:33:31.762Z,21.40
2022-10-10T12:36:16.970Z,21.40
2022-10-10T12:39:08.384Z,21.40
2022-10-10T12:41:47.757Z,21.30
2022-10-10T12:44:14.977Z,21.30
2022-10-10T12:46:42.990Z,21.30
2022-10-10T12:49:13.189Z,21.30
2022-10-10T12:51:40.918Z,21.30
2022-10-10T12:54:08.497Z,21.30
2022-10-10T12:56:37.683Z,21.30
2022-10-10T12:59:05.880Z,21.30
2022-10-10T13:01:35.859Z,21.30
2022-10-10T13:04:03.132Z,21.30
2022-10-10T13:06:35.822Z,21.30
2022-10-10T13:09:07.353Z,21.30
2022-10-10T13:11:49.714Z,21.30
2022-10-10T13:14:16.798Z,21.20
2022-10-10T13:16:44.403Z,21.20
2022-10-10T13:19:22.120Z,21.20
2022-10-10T13:21:50.100Z,21.30
2022-10-10T13:24:18.537Z,21.30
2022-10-10T13:26:47.039Z,21.30
2022-10-10T13:29:18.725Z,21.40
2022-10-10T13:31:45.879Z,21.40
2022-10-10T13:34:15.949Z,21.50
2022-10-10T13:36:43.484Z,21.60
2022-10-10T13:39:16.997Z,21.60
2022-10-10T13:41:45.490Z,21.60
2022-10-10T13:44:16.693Z,21.70
2022-10-10T13:46:43.772Z,21.70
2022-10-10T13:49:29.800Z,21.70
2022-10-10T13:52:19.815Z,21.60
2022-10-10T13:54:47.656Z,21.60
2022-10-10T13:57:14.888Z,21.60
2022-10-10T13:59:42.718Z,21.60
2022-10-10T14:02:12.720Z,21.70
2022-10-10T14:04:45.085Z,21.60
2022-10-10T14:07:15.821Z,21.60
2022-10-10T14:10:06.316Z,21.60
2022-10-10T14:12:34.984Z,21.60
2022-10-10T14:15:02.404Z,21.60
2022-10-10T14:17:29.511Z,21.60
2022-10-10T14:19:57.037Z,21.60
2022-10-10T14:22:24.241Z,21.60
2022-10-10T14:24:51.344Z,21.50
2022-10-10T14:27:23.347Z,21.50
2022-10-10T14:29:51.232Z,21.50
2022-10-10T14:32:18.596Z,21.50
2022-10-10T14:34:46.008Z,21.40
2022-10-10T14:37:20.533Z,21.40
2022-10-10T14:39:47.620Z,21.40
2022-10-10T14:42:15.856Z,21.40
2022-10-10T14:44:42.949Z,21.40
2022-10-10T14:47:20.292Z,21.40
2022-10-10T14:49:47.955Z,21.30
2022-10-10T14:52:15.274Z,21.30
2022-10-10T14:54:42.427Z,21.30
2022-10-10T14:57:10.394Z,21.30
2022-10-10T14:59:46.062Z,21.30
2022-10-10T15:02:15.986Z,21.30
2022-10-10T15:04:42.994Z,21.30
2022-10-10T15:07:13.916Z,21.30
2022-10-10T15:09:56.582Z,21.30
2022-10-10T15:12:29.403Z,21.30
2022-10-10T15:14:56.472Z,21.30
2022-10-10T15:17:25.410Z,21.40
2022-10-10T15:19:52.665Z,21.40
2022-10-10T15:22:19.851Z,21.50
2022-10-10T15:24:46.873Z,21.50
2022-10-10T15:27:14.243Z,21.50
2022-10-10T15:29:41.288Z,21.60
2022-10-10T15:32:08.286Z,21.60
2022-10-10T15:34:35.417Z,21.60
2022-10-10T15:37:02.414Z,21.60
2022-10-10T15:39:30.881Z,21.60
2022-10-10T15:41:58.065Z,21.70
2022-10-10T15:44:25.207Z,21.60
2022-10-10T15:46:53.176Z,21.70
2022-10-10T15:49:20.298Z,21.70
2022-10-10T15:51:47.386Z,21.60
2022-10-10T15:54:14.476Z,21.60
2022-10-10T15:56:41.915Z,21.70
2022-10-10T15:59:10.429Z,21.60
2022-10-10T16:01:37.448Z,21.60
2022-10-10T16:04:06.168Z,21.60
2022-10-10T16:06:33.204Z,21.60
2022-10-10T16:09:23.498Z,21.60
2022-10-10T16:11:49.054Z,21.60
2022-10-10T16:14:16.107Z,21.50
2022-10-10T16:16:43.165Z,21.50
2022-10-10T16:19:10.229Z,21.50
2022-10-10T16:21:37.275Z,21.50
2022-10-10T16:24:04.475Z,21.40
2022-10-10T16:26:33.443Z,21.40
2022-10-10T16:29:01.269Z,21.40
2022-10-10T16:31:29.048Z,21.40
2022-10-10T16:33:56.665Z,21.40
2022-10-10T16:36:27.920Z,21.40
2022-10-10T16:39:02.716Z,21.40
2022-10-10T16:41:46.978Z,21.40
2022-10-10T16:44:15.338Z,21.30
2022-10-10T16:46:42.389Z,21.30
2022-10-10T16:49:10.958Z,21.30
2022-10-10T16:51:37.984Z,21.30
2022-10-10T16:54:05.832Z,21.30
2022-10-10T16:56:33.013Z,21.40
2022-10-10T16:59:00.279Z,21.40
2022-10-10T17:01:27.939Z,21.40
2022-10-10T17:03:55.385Z,21.50
2022-10-10T17:06:23.241Z,21.50
2022-10-10T17:08:51.117Z,21.50
2022-10-10T17:11:20.179Z,21.60
2022-10-10T17:13:47.833Z,21.70
2022-10-10T17:19:04.258Z,21.60
2022-10-10T17:21:31.532Z,21.70
2022-10-10T17:23:58.861Z,21.70
2022-10-10T17:26:27.762Z,21.70
2022-10-10T17:28:55.887Z,21.70
2022-10-10T17:31:23.429Z,21.70
2022-10-10T17:33:54.008Z,21.70
2022-10-10T17:36:22.956Z,21.70
2022-10-10T17:38:50.316Z,21.70
2022-10-10T17:41:18.332Z,21.70
2022-10-10T17:43:45.725Z,21.70
2022-10-10T17:49:05.212Z,21.70
2022-10-10T17:51:32.606Z,21.60
2022-10-10T17:53:59.980Z,21.60
2022-10-10T17:56:27.341Z,21.60
2022-10-10T17:58:54.640Z,21.60
2022-10-10T18:01:22.110Z,21.50
2022-10-10T18:03:49.339Z,21.60
2022-10-10T18:06:17.607Z,21.50
2022-10-10T18:08:46.581Z,21.60
2022-10-10T18:11:19.037Z,21.50
2022-10-10T18:13:46.292Z,21.50
2022-10-10T18:16:15.071Z,21.50
2022-10-10T18:18:50.341Z,21.40
2022-10-10T18:21:18.967Z,21.50
2022-10-10T18:23:45.963Z,21.50
2022-10-10T18:26:23.210Z,21.40
2022-10-10T18:28:52.593Z,21.50
2022-10-10T18:31:20.893Z,21.50
2022-10-10T18:33:47.980Z,21.40
2022-10-10T18:36:16.561Z,21.40
2022-10-10T18:38:43.586Z,21.50
2022-10-10T18:41:18.141Z,21.50
2022-10-10T18:43:45.522Z,21.50
2022-10-10T18:46:14.207Z,21.50
2022-10-10T18:48:41.758Z,21.50
2022-10-10T18:51:11.138Z,21.50
2022-10-10T18:53:39.015Z,21.50
2022-10-10T18:56:06.367Z,21.50
2022-10-10T18:58:34.936Z,21.50
2022-10-10T19:01:04.906Z,21.60
2022-10-10T19:03:32.284Z,21.60
2022-10-10T19:06:01.072Z,21.60
2022-10-10T19:08:28.173Z,21.60
2022-10-10T19:10:55.269Z,21.60
2022-10-10T19:13:22.649Z,21.60
2022-10-10T19:15:51.569Z,21.60
2022-10-10T19:18:19.255Z,21.60
2022-10-10T19:20:46.569Z,21.60
2022-10-10T19:23:14.948Z,21.70
2022-10-10T19:25:42.890Z,21.60
2022-10-10T19:28:10.055Z,21.70
2022-10-10T19:30:38.882Z,21.70
2022-10-10T19:33:06.076Z,21.70
2022-10-10T19:35:40.694Z,21.70
2022-10-10T19:38:09.057Z,21.70
2022-10-10T19:40:42.820Z,21.70
2022-10-10T19:43:09.831Z,21.60
2022-10-10T19:45:40.797Z,21.60
2022-10-10T19:48:07.857Z,21.60
2022-10-10T19:50:38.152Z,21.60
2022-10-10T19:53:05.493Z,21.60
2022-10-10T19:55:32.635Z,21.60
2022-10-10T19:57:59.776Z,21.50
2022-10-10T20:00:26.914Z,21.50
2022-10-10T20:02:54.265Z,21.50
2022-10-10T20:05:21.319Z,21.50
2022-10-10T20:07:51.489Z,21.50
2022-10-10T20:10:19.000Z,21.40
2022-10-10T20:12:46.687Z,21.40
2022-10-10T20:15:13.729Z,21.40
2022-10-10T20:17:41.212Z,21.40
2022-10-10T20:20:08.438Z,21.40
2022-10-10T20:22:35.487Z,21.30
2022-10-10T20:25:03.302Z,21.30
2022-10-10T20:27:31.553Z,21.30
2022-10-10T20:29:58.700Z,21.30
2022-10-10T20:32:25.743Z,21.30
2022-10-10T20:34:52.810Z,21.30
2022-10-10T20:37:19.828Z,21.20
2022-10-10T20:39:46.885Z,21.20
2022-10-10T20:42:14.036Z,21.20
2022-10-10T20:44:41.074Z,21.20
2022-10-10T20:47:08.113Z,21.20
2022-10-10T20:49:35.215Z,21.10
2022-10-10T20:52:02.373Z,21.10
2022-10-10T20:54:29.421Z,21.10
2022-10-10T20:56:56.620Z,21.10
2022-10-10T20:59:24.547Z,21.10
2022-10-10T21:01:51.846Z,21.10
2022-10-10T21:04:18.883Z,21.10
2022-10-10T21:06:46.132Z,21.00
2022-10-10T21:09:14.345Z,21.00
2022-10-10T21:11:41.430Z,21.00
2022-10-10T21:14:08.518Z,21.00
2022-10-10T21:16:36.881Z,21.00
2022-10-10T21:19:04.829Z,21.00
2022-10-10T21:21:33.688Z,21.00
2022-10-10T21:24:02.076Z,20.90
2022-10-10T21:26:29.499Z,20.90
2022-10-10T21:28:57.156Z,20.90
2022-10-10T21:31:25.931Z,20.80
2022-10-10T21:33:53.863Z,20.80
2022-10-10T21:36:21.521Z,20.80
2022-10-10T21:38:48.635Z,20.80
2022-10-10T21:41:19.128Z,20.80
2022-10-10T21:43:47.193Z,20.80
2022-10-10T21:46:16.054Z,20.70
2022-10-10T21:48:43.063Z,20.80
2022-10-10T21:51:10.093Z,20.70
2022-10-10T21:53:37.443Z,20.70
2022-10-10T21:56:06.277Z,20.70
2022-10-10T21:58:38.071Z,20.70
2022-10-10T22:01:09.556Z,20.70
2022-10-10T22:03:37.034Z,20.70
2022-10-10T22:06:05.651Z,20.70
2022-10-10T22:08:33.176Z,20.70
2022-10-10T22:11:01.526Z,20.60
2022-10-10T22:13:28.633Z,20.70
2022-10-10T22:15:56.214Z,20.60
2022-10-10T22:18:23.628Z,20.60
2022-10-10T22:20:50.850Z,20.60
2022-10-10T22:23:18.542Z,20.60
2022-10-10T22:25:46.308Z,20.60
2022-10-10T22:28:13.482Z,20.60
2022-10-10T22:30:40.546Z,20.60
2022-10-10T22:33:07.601Z,20.60
2022-10-10T22:35:34.723Z,20.60
2022-10-10T22:38:02.053Z,20.60
2022-10-10T22:40:29.436Z,20.60
2022-10-10T22:42:56.931Z,20.50
2022-10-10T22:45:24.091Z,20.50
2022-10-10T22:47:51.166Z,20.50
2022-10-10T22:50:19.033Z,20.50
2022-10-10T22:52:46.433Z,20.50
2022-10-10T22:55:18.246Z,20.50
2022-10-10T22:57:46.046Z,20.50
2022-10-10T23:00:13.564Z,20.50
2022-10-10T23:02:40.676Z,20.50
2022-10-10T23:05:08.126Z,20.50
2022-10-10T23:07:35.512Z,20.50
2022-10-10T23:10:03.139Z,20.50
2022-10-10T23:12:30.200Z,20.50
2022-10-10T23:14:57.175Z,20.40
2022-10-10T23:17:24.210Z,20.50
2022-10-10T23:19:51.265Z,20.50
2022-10-10T23:22:18.357Z,20.40
2022-10-10T23:24:45.368Z,20.40
2022-10-10T23:27:12.581Z,20.40
2022-10-10T23:29:39.650Z,20.40
2022-10-10T23:32:06.813Z,20.40
2022-10-10T23:34:34.019Z,20.40
2022-10-10T23:37:01.154Z,20.40
2022-10-10T23:39:28.229Z,20.40
2022-10-10T23:41:55.271Z,20.40
2022-10-10T23:44:22.403Z,20.40
2022-10-10T23:46:49.461Z,20.30
2022-10-10T23:49:16.478Z,20.30
2022-10-10T23:51:43.528Z,20.30
2022-10-10T23:54:10.540Z,20.30
2022-10-10T23:56:37.517Z,20.30
2022-10-10T23:59:04.573Z,20.30
